createdAt,value
2022-09-23T00:01:07.670Z,100.00
2022-09-23T00:03:36.056Z,100.00
2022-09-23T00:06:08.307Z,100.00
2022-09-23T00:08:35.154Z,100.00
2022-09-23T00:11:10.001Z,100.00
2022-09-23T00:13:37.982Z,100.00
2022-09-23T00:16:08.998Z,100.00
2022-09-23T00:18:35.801Z,100.00
2022-09-23T00:21:06.348Z,100.00
2022-09-23T00:23:33.121Z,100.00
2022-09-23T00:26:01.316Z,100.00
2022-09-23T00:28:27.778Z,100.00
2022-09-23T00:30:54.484Z,100.00
2022-09-23T00:33:21.177Z,100.00
2022-09-23T00:35:47.804Z,100.00
2022-09-23T00:38:14.399Z,100.00
2022-09-23T00:40:45.998Z,100.00
2022-09-23T00:43:13.804Z,100.00
2022-09-23T00:45:42.334Z,100.00
2022-09-23T00:48:15.029Z,100.00
2022-09-23T00:50:43.942Z,100.00
2022-09-23T00:53:16.207Z,100.00
2022-09-23T00:55:48.756Z,100.00
2022-09-23T00:58:18.378Z,100.00
2022-09-23T01:00:46.373Z,100.00
2022-09-23T01:03:13.630Z,100.00
2022-09-23T01:05:40.401Z,100.00
2022-09-23T01:08:09.175Z,100.00
2022-09-23T01:10:44.575Z,100.00
2022-09-23T01:13:28.782Z,100.00
2022-09-23T01:16:05.607Z,100.00
2022-09-23T01:19:01.192Z,100.00
2022-09-23T01:21:39.070Z,100.00
2022-09-23T01:24:30.628Z,100.00
2022-09-23T01:27:17.540Z,100.00
2022-09-23T01:29:56.014Z,100.00
2022-09-23T01:32:59.813Z,100.00
2022-09-23T01:35:46.522Z,100.00
2022-09-23T01:38:25.361Z,100.00
2022-09-23T01:41:01.246Z,100.00
2022-09-23T01:43:35.924Z,100.00
2022-09-23T01:46:09.264Z,100.00
2022-09-23T01:48:40.822Z,100.00
2022-09-23T01:51:12.743Z,100.00
2022-09-23T01:53:41.346Z,100.00
2022-09-23T01:56:18.021Z,100.00
2022-09-23T01:58:50.304Z,100.00
2022-09-23T02:01:21.468Z,100.00
2022-09-23T02:03:59.233Z,100.00
2022-09-23T02:06:30.298Z,100.00
2022-09-23T02:09:02.862Z,100.00
2022-09-23T02:11:32.488Z,100.00
2022-09-23T02:14:02.735Z,100.00
2022-09-23T02:16:40.935Z,100.00
2022-09-23T02:19:12.405Z,100.00
2022-09-23T02:21:42.740Z,100.00
2022-09-23T02:24:13.547Z,100.00
2022-09-23T02:27:06.283Z,100.00
2022-09-23T02:29:49.297Z,100.00
2022-09-23T02:32:20.316Z,100.00
2022-09-23T02:34:58.715Z,100.00
2022-09-23T02:37:37.192Z,100.00
2022-09-23T02:40:36.356Z,100.00
2022-09-23T02:43:14.333Z,100.00
2022-09-23T02:45:40.849Z,100.00
2022-09-23T02:48:21.755Z,100.00
2022-09-23T02:50:48.667Z,100.00
2022-09-23T02:53:17.962Z,100.00
2022-09-23T02:55:44.609Z,100.00
2022-09-23T02:58:13.330Z,100.00
2022-09-23T03:00:59.902Z,100.00
2022-09-23T03:03:47.386Z,100.00
2022-09-23T03:06:27.865Z,100.00
2022-09-23T03:09:00.214Z,100.00
2022-09-23T03:11:26.903Z,100.00
2022-09-23T03:14:17.557Z,100.00
2022-09-23T03:17:26.387Z,100.00
2022-09-23T03:20:01.253Z,100.00
2022-09-23T03:22:33.788Z,100.00
2022-09-23T03:25:08.477Z,100.00
2022-09-23T03:27:36.087Z,100.00
2022-09-23T03:30:04.415Z,100.00
2022-09-23T03:32:32.002Z,100.00
2022-09-23T03:35:00.613Z,100.00
2022-09-23T03:37:32.846Z,100.00
2022-09-23T03:40:07.510Z,100.00
2022-09-23T03:42:34.276Z,100.00
2022-09-23T03:45:01.324Z,100.00
2022-09-23T03:47:28.750Z,100.00
2022-09-23T03:49:56.711Z,100.00
2022-09-23T03:52:25.270Z,100.00
2022-09-23T03:54:52.208Z,100.00
2022-09-23T03:57:21.957Z,100.00
2022-09-23T03:59:50.440Z,100.00
2022-09-23T04:02:19.624Z,100.00
2022-09-23T04:04:46.070Z,100.00
2022-09-23T04:07:13.322Z,100.00
2022-09-23T04:09:39.784Z,100.00
2022-09-23T04:12:07.107Z,100.00
2022-09-23T04:14:34.968Z,100.00
2022-09-23T04:17:01.301Z,100.00
2022-09-23T04:19:27.645Z,100.00
2022-09-23T04:21:54.050Z,100.00
2022-09-23T04:24:20.530Z,100.00
2022-09-23T04:26:50.346Z,100.00
2022-09-23T04:29:16.757Z,100.00
2022-09-23T04:31:43.630Z,100.00
2022-09-23T04:34:10.448Z,100.00
2022-09-23T04:36:36.743Z,100.00
2022-09-23T04:39:04.412Z,100.00
2022-09-23T04:41:30.845Z,100.00
2022-09-23T04:43:57.556Z,100.00
2022-09-23T04:46:24.337Z,100.00
2022-09-23T04:48:50.759Z,100.00
2022-09-23T04:51:19.969Z,100.00
2022-09-23T04:53:48.117Z,100.00
2022-09-23T04:56:17.520Z,100.00
2022-09-23T04:58:45.477Z,100.00
2022-09-23T05:01:14.406Z,100.00
2022-09-23T05:03:41.156Z,100.00
2022-09-23T05:06:08.018Z,100.00
2022-09-23T05:08:35.133Z,100.00
2022-09-23T05:11:04.798Z,100.00
2022-09-23T05:13:32.563Z,100.00
2022-09-23T05:16:01.278Z,100.00
2022-09-23T05:18:30.970Z,100.00
2022-09-23T05:20:57.550Z,100.00
2022-09-23T05:23:27.278Z,100.00
2022-09-23T05:26:05.597Z,100.00
2022-09-23T05:28:32.904Z,100.00
2022-09-23T05:31:08.113Z,100.00
2022-09-23T05:33:35.876Z,100.00
2022-09-23T05:36:03.635Z,100.00
2022-09-23T05:38:30.732Z,100.00
2022-09-23T05:41:04.412Z,100.00
2022-09-23T05:43:31.595Z,100.00
2022-09-23T05:46:07.216Z,100.00
2022-09-23T05:48:35.292Z,100.00
2022-09-23T05:51:01.870Z,100.00
2022-09-23T05:53:30.066Z,100.00
2022-09-23T05:55:57.474Z,100.00
2022-09-23T05:58:24.745Z,100.00
2022-09-23T06:00:51.395Z,100.00
2022-09-23T06:03:21.339Z,100.00
2022-09-23T06:05:48.433Z,100.00
2022-09-23T06:08:14.958Z,100.00
2022-09-23T06:10:43.274Z,100.00
2022-09-23T06:13:10.130Z,100.00
2022-09-23T06:15:37.275Z,100.00
2022-09-23T06:18:06.472Z,100.00
2022-09-23T06:20:34.006Z,100.00
2022-09-23T06:23:08.634Z,100.00
2022-09-23T06:25:40.749Z,100.00
2022-09-23T06:28:10.746Z,99.51
2022-09-23T06:30:37.221Z,95.38
2022-09-23T06:33:03.598Z,98.37
2022-09-23T06:35:32.486Z,82.06
2022-09-23T06:37:59.278Z,83.89
2022-09-23T06:40:25.689Z,76.07
2022-09-23T06:42:59.591Z,76.72
2022-09-23T06:45:27.195Z,72.84
2022-09-23T06:47:56.310Z,63.57
2022-09-23T06:50:26.553Z,65.77
2022-09-23T06:52:56.682Z,63.73
2022-09-23T06:55:24.546Z,59.12
2022-09-23T06:57:51.147Z,55.57
2022-09-23T07:00:18.191Z,61.35
2022-09-23T07:02:44.880Z,58.94
2022-09-23T07:05:11.462Z,60.21
2022-09-23T07:07:38.297Z,66.99
2022-09-23T07:10:06.308Z,69.56
2022-09-23T07:12:33.350Z,63.97
2022-09-23T07:14:59.724Z,61.06
2022-09-23T07:17:26.374Z,57.86
2022-09-23T07:19:54.918Z,60.26
2022-09-23T07:22:22.480Z,57.57
2022-09-23T07:24:48.889Z,52.90
2022-09-23T07:27:19.985Z,52.28
2022-09-23T07:29:50.557Z,49.05
2022-09-23T07:32:17.202Z,48.70
2022-09-23T07:34:44.373Z,48.45
2022-09-23T07:37:11.209Z,48.60
2022-09-23T07:39:37.695Z,47.78
2022-09-23T07:42:05.266Z,50.64
2022-09-23T07:44:32.787Z,48.91
2022-09-23T07:47:00.309Z,54.34
2022-09-23T07:49:27.756Z,56.36
2022-09-23T07:51:54.440Z,51.33
2022-09-23T07:54:21.804Z,52.57
2022-09-23T07:56:48.195Z,48.50
2022-09-23T07:59:18.207Z,49.04
2022-09-23T08:01:48.370Z,50.24
2022-09-23T08:04:28.154Z,49.61
2022-09-23T08:06:58.416Z,48.55
2022-09-23T08:09:27.935Z,48.29
2022-09-23T08:11:55.208Z,46.36
2022-09-23T08:14:22.430Z,45.43
2022-09-23T08:16:49.467Z,47.76
2022-09-23T08:19:16.474Z,53.19
2022-09-23T08:21:43.168Z,50.81
2022-09-23T08:24:13.185Z,49.72
2022-09-23T08:26:39.671Z,52.40
2022-09-23T08:29:06.826Z,44.49
2022-09-23T08:31:33.276Z,45.84
2022-09-23T08:33:59.940Z,45.72
2022-09-23T08:36:26.740Z,41.09
2022-09-23T08:38:53.350Z,39.87
2022-09-23T08:41:29.415Z,39.62
2022-09-23T08:43:58.333Z,39.87
2022-09-23T08:46:28.814Z,40.21
2022-09-23T08:48:55.830Z,39.08
2022-09-23T08:51:26.363Z,40.58
2022-09-23T08:53:52.917Z,37.98
2022-09-23T08:56:22.592Z,41.06
2022-09-23T08:59:23.127Z,39.96
2022-09-23T09:01:53.615Z,38.88
2022-09-23T09:04:27.873Z,42.16
2022-09-23T09:07:31.839Z,39.93
2022-09-23T09:10:09.763Z,41.41
2022-09-23T09:12:45.750Z,40.20
2022-09-23T09:15:13.081Z,36.77
2022-09-23T09:17:48.414Z,37.16
2022-09-23T09:20:14.873Z,40.30
2022-09-23T09:22:57.774Z,39.44
2022-09-23T09:25:34.285Z,40.22
2022-09-23T09:28:01.330Z,38.33
2022-09-23T09:30:28.292Z,36.38
2022-09-23T09:33:01.649Z,37.06
2022-09-23T09:35:35.065Z,36.58
2022-09-23T09:38:01.949Z,36.70
2022-09-23T09:40:28.519Z,38.08
2022-09-23T09:42:55.070Z,33.81
2022-09-23T09:45:57.493Z,34.41
2022-09-23T09:48:33.121Z,34.35
2022-09-23T09:51:18.722Z,36.20
2022-09-23T09:53:45.235Z,34.50
2022-09-23T09:56:14.975Z,32.22
2022-09-23T09:59:04.813Z,28.71
2022-09-23T10:01:33.260Z,29.41
2022-09-23T10:04:33.726Z,27.61
2022-09-23T10:07:28.170Z,26.44
2022-09-23T10:09:58.315Z,31.83
2022-09-23T10:12:43.474Z,32.17
2022-09-23T10:15:26.975Z,34.80
2022-09-23T10:17:54.317Z,31.41
2022-09-23T10:20:20.745Z,31.18
2022-09-23T10:22:47.602Z,29.39
2022-09-23T10:25:20.834Z,30.60
2022-09-23T10:27:47.326Z,33.48
2022-09-23T10:30:25.159Z,32.60
2022-09-23T10:32:54.887Z,33.68
2022-09-23T10:35:23.705Z,36.24
2022-09-23T10:37:52.585Z,36.15
2022-09-23T10:40:56.242Z,34.63
2022-09-23T10:44:09.219Z,34.03
2022-09-23T10:47:00.395Z,32.83
2022-09-23T10:49:45.097Z,32.83
2022-09-23T10:52:38.032Z,32.92
2022-09-23T10:55:15.302Z,31.88
2022-09-23T10:57:44.832Z,28.77
2022-09-23T11:00:22.315Z,31.12
2022-09-23T11:03:09.267Z,32.77
2022-09-23T11:06:00.739Z,31.21
2022-09-23T11:08:36.929Z,30.85
2022-09-23T11:11:46.042Z,30.65
2022-09-23T11:14:31.141Z,30.67
2022-09-23T11:16:58.161Z,32.18
2022-09-23T11:19:44.740Z,31.13
2022-09-23T11:22:24.632Z,34.57
2022-09-23T11:25:00.203Z,36.64
2022-09-23T11:27:57.126Z,38.01
2022-09-23T11:30:30.596Z,35.58
2022-09-23T11:33:04.507Z,38.12
2022-09-23T11:35:50.965Z,37.33
2022-09-23T11:38:31.777Z,36.86
2022-09-23T11:41:01.596Z,35.17
2022-09-23T11:43:33.475Z,34.74
2022-09-23T11:46:22.874Z,36.83
2022-09-23T11:48:56.346Z,35.22
2022-09-23T11:51:29.344Z,37.61
2022-09-23T11:54:20.740Z,34.21
2022-09-23T11:56:51.469Z,33.79
2022-09-23T12:03:06.617Z,35.35
2022-09-23T12:05:39.036Z,34.26
2022-09-23T12:08:25.456Z,35.75
2022-09-23T12:10:58.974Z,36.32
2022-09-23T12:13:32.059Z,36.20
2022-09-23T12:16:11.361Z,37.27
2022-09-23T12:18:54.397Z,37.24
2022-09-23T12:21:53.063Z,40.57
2022-09-23T12:24:46.753Z,37.36
2022-09-23T12:27:24.156Z,38.23
2022-09-23T12:30:01.493Z,43.08
2022-09-23T12:32:28.158Z,40.43
2022-09-23T12:34:55.336Z,41.74
2022-09-23T12:37:33.948Z,43.77
2022-09-23T12:40:09.819Z,45.15
2022-09-23T12:42:41.341Z,44.84
2022-09-23T12:45:31.960Z,44.77
2022-09-23T12:48:03.203Z,45.23
2022-09-23T12:50:52.474Z,44.47
2022-09-23T12:53:34.276Z,45.24
2022-09-23T12:56:14.627Z,43.82
2022-09-23T12:58:43.842Z,43.80
2022-09-23T13:01:19.256Z,41.56
2022-09-23T13:04:06.079Z,43.16
2022-09-23T13:07:03.485Z,41.99
2022-09-23T13:09:31.827Z,43.39
2022-09-23T13:12:03.076Z,43.97
2022-09-23T13:14:30.374Z,42.57
2022-09-23T13:16:58.425Z,43.37
2022-09-23T13:19:27.851Z,41.81
2022-09-23T13:21:54.221Z,43.63
2022-09-23T13:24:24.949Z,41.87
2022-09-23T13:27:02.652Z,43.73
2022-09-23T13:29:37.330Z,41.76
2022-09-23T13:32:05.908Z,41.76
2022-09-23T13:34:34.632Z,42.32
2022-09-23T13:37:22.862Z,43.83
2022-09-23T13:39:50.160Z,46.12
2022-09-23T13:42:27.126Z,45.43
2022-09-23T13:44:57.377Z,46.22
2022-09-23T13:47:25.856Z,45.62
2022-09-23T13:49:52.988Z,43.91
2022-09-23T13:52:26.383Z,45.84
2022-09-23T13:54:52.938Z,46.67
2022-09-23T13:57:31.071Z,47.69
2022-09-23T14:00:21.222Z,48.79
2022-09-23T14:02:47.763Z,49.28
2022-09-23T14:05:21.993Z,49.50
2022-09-23T14:07:50.229Z,47.34
2022-09-23T14:10:26.610Z,47.20
2022-09-23T14:12:54.662Z,47.58
2022-09-23T14:15:21.445Z,48.61
2022-09-23T14:18:06.224Z,49.22
2022-09-23T14:20:34.253Z,49.81
2022-09-23T14:23:10.887Z,46.40
2022-09-23T14:25:38.690Z,48.04
2022-09-23T14:28:05.184Z,50.03
2022-09-23T14:30:31.877Z,49.57
2022-09-23T14:32:59.209Z,48.67
2022-09-23T14:35:28.252Z,49.94
2022-09-23T14:38:16.912Z,46.92
2022-09-23T14:40:53.596Z,50.04
2022-09-23T14:43:25.701Z,46.43
2022-09-23T14:45:58.951Z,45.35
2022-09-23T14:48:30.986Z,45.60
2022-09-23T14:50:59.772Z,46.10
2022-09-23T14:53:43.048Z,48.42
2022-09-23T14:56:18.639Z,46.77
2022-09-23T14:58:56.825Z,47.81
2022-09-23T15:01:35.382Z,46.94
2022-09-23T15:04:13.513Z,46.75
2022-09-23T15:06:46.853Z,46.95
2022-09-23T15:09:20.125Z,48.29
2022-09-23T15:11:47.157Z,48.45
2022-09-23T15:14:36.770Z,48.56
2022-09-23T15:17:01.338Z,48.48
2022-09-23T15:19:28.293Z,48.03
2022-09-23T15:21:54.781Z,46.20
2022-09-23T15:24:40.849Z,48.57
2022-09-23T15:27:21.070Z,47.55
2022-09-23T15:29:47.432Z,48.04
2022-09-23T15:32:13.873Z,51.13
2022-09-23T15:34:40.338Z,48.20
2022-09-23T15:37:11.079Z,46.89
2022-09-23T15:39:37.469Z,47.68
2022-09-23T15:42:04.260Z,48.40
2022-09-23T15:44:30.745Z,49.36
2022-09-23T15:47:00.009Z,48.38
2022-09-23T15:49:36.664Z,50.42
2022-09-23T15:52:04.518Z,50.85
2022-09-23T15:54:32.414Z,52.56
2022-09-23T15:57:00.396Z,52.44
2022-09-23T15:59:28.584Z,58.23
2022-09-23T16:01:56.293Z,57.14
2022-09-23T16:04:23.672Z,59.56
2022-09-23T16:06:50.299Z,59.46
2022-09-23T16:09:16.939Z,64.81
2022-09-23T16:11:45.740Z,75.63
2022-09-23T16:14:14.721Z,71.60
2022-09-23T16:16:43.933Z,74.47
2022-09-23T16:19:12.327Z,71.99
2022-09-23T16:21:40.861Z,71.82
2022-09-23T16:24:15.020Z,73.93
2022-09-23T16:26:43.109Z,76.03
2022-09-23T16:29:11.379Z,77.89
2022-09-23T16:31:38.677Z,76.18
2022-09-23T16:34:05.638Z,78.01
2022-09-23T16:36:39.209Z,77.07
2022-09-23T16:39:07.656Z,79.90
2022-09-23T16:41:34.232Z,80.47
2022-09-23T16:44:02.209Z,83.13
2022-09-23T16:46:29.758Z,83.77
2022-09-23T16:48:57.573Z,83.32
2022-09-23T16:51:38.567Z,85.78
2022-09-23T16:54:10.151Z,90.27
2022-09-23T16:56:45.098Z,92.04
2022-09-23T16:59:13.030Z,97.44
2022-09-23T17:01:58.270Z,100.00
2022-09-23T17:04:24.763Z,100.00
2022-09-23T17:06:52.810Z,95.77
2022-09-23T17:09:24.749Z,100.00
2022-09-23T17:11:57.811Z,100.00
2022-09-23T17:14:24.684Z,100.00
2022-09-23T17:16:51.189Z,100.00
2022-09-23T17:19:17.781Z,100.00
2022-09-23T17:21:44.731Z,100.00
2022-09-23T17:24:11.511Z,100.00
2022-09-23T17:26:38.258Z,100.00
2022-09-23T17:29:05.580Z,100.00
2022-09-23T17:31:32.261Z,100.00
2022-09-23T17:33:58.765Z,100.00
2022-09-23T17:36:25.326Z,100.00
2022-09-23T17:38:54.462Z,100.00
2022-09-23T17:41:21.121Z,100.00
2022-09-23T17:43:47.658Z,100.00
2022-09-23T17:46:18.706Z,100.00
2022-09-23T17:48:45.574Z,100.00
2022-09-23T17:51:15.757Z,100.00
2022-09-23T17:53:45.083Z,100.00
2022-09-23T17:56:17.026Z,100.00
2022-09-23T17:58:44.627Z,100.00
2022-09-23T18:01:12.883Z,100.00
2022-09-23T18:03:39.859Z,100.00
2022-09-23T18:06:08.410Z,100.00
2022-09-23T18:08:34.858Z,100.00
2022-09-23T18:11:01.682Z,100.00
2022-09-23T18:13:28.390Z,100.00
2022-09-23T18:15:54.942Z,100.00
2022-09-23T18:18:21.436Z,100.00
2022-09-23T18:20:47.808Z,100.00
2022-09-23T18:23:14.435Z,100.00
2022-09-23T18:25:40.810Z,100.00
2022-09-23T18:28:07.266Z,100.00
2022-09-23T18:30:33.713Z,100.00
2022-09-23T18:33:00.352Z,100.00
2022-09-23T18:35:26.758Z,100.00
2022-09-23T18:37:53.180Z,100.00
2022-09-23T18:40:19.663Z,100.00
2022-09-23T18:42:46.175Z,100.00
2022-09-23T18:45:12.607Z,100.00
2022-09-23T18:47:57.463Z,100.00
2022-09-23T18:50:44.998Z,100.00
2022-09-23T18:53:11.457Z,100.00
2022-09-23T18:55:38.093Z,100.00
2022-09-23T18:58:07.301Z,100.00
2022-09-23T19:00:34.079Z,100.00
2022-09-23T19:03:00.658Z,100.00
2022-09-23T19:05:27.396Z,100.00
2022-09-23T19:07:53.806Z,100.00
2022-09-23T19:10:20.278Z,100.00
2022-09-23T19:12:46.706Z,100.00
2022-09-23T19:15:14.194Z,100.00
2022-09-23T19:17:40.619Z,100.00
2022-09-23T19:20:07.842Z,100.00
2022-09-23T19:22:34.532Z,100.00
2022-09-23T19:25:00.918Z,100.00
2022-09-23T19:27:27.380Z,100.00
2022-09-23T19:29:53.954Z,100.00
2022-09-23T19:32:21.109Z,100.00
2022-09-23T19:34:47.866Z,100.00
2022-09-23T19:37:14.522Z,100.00
2022-09-23T19:39:40.981Z,100.00
2022-09-23T19:42:07.678Z,100.00
2022-09-23T19:44:37.734Z,100.00
2022-09-23T19:47:04.431Z,100.00
2022-09-23T19:49:31.099Z,100.00
2022-09-23T19:51:57.571Z,100.00
2022-09-23T19:54:26.934Z,100.00
2022-09-23T19:56:53.331Z,100.00
2022-09-23T19:59:19.862Z,100.00
2022-09-23T20:01:47.956Z,100.00
2022-09-23T20:04:15.677Z,100.00
2022-09-23T20:06:42.435Z,100.00
2022-09-23T20:09:09.035Z,100.00
2022-09-23T20:11:35.612Z,100.00
2022-09-23T20:14:03.854Z,100.00
2022-09-23T20:16:33.297Z,100.00
2022-09-23T20:19:00.846Z,100.00
2022-09-23T20:21:29.205Z,100.00
2022-09-23T20:23:56.204Z,100.00
2022-09-23T20:26:41.438Z,100.00
2022-09-23T20:29:08.902Z,100.00
2022-09-23T20:31:35.555Z,100.00
2022-09-23T20:34:05.551Z,100.00
2022-09-23T20:36:33.325Z,100.00
2022-09-23T20:39:01.619Z,100.00
2022-09-23T20:41:29.755Z,100.00
2022-09-23T20:44:00.293Z,100.00
2022-09-23T20:46:28.555Z,100.00
2022-09-23T20:48:56.627Z,100.00
2022-09-23T20:51:24.111Z,100.00
2022-09-23T20:53:52.719Z,100.00
2022-09-23T20:56:23.102Z,100.00
2022-09-23T20:58:50.959Z,100.00
2022-09-23T21:01:18.163Z,100.00
2022-09-23T21:03:46.924Z,100.00
2022-09-23T21:06:15.050Z,100.00
2022-09-23T21:08:42.358Z,100.00
2022-09-23T21:11:16.808Z,100.00
2022-09-23T21:13:47.622Z,100.00
2022-09-23T21:16:18.107Z,100.00
2022-09-23T21:18:45.569Z,100.00
2022-09-23T21:21:14.068Z,100.00
2022-09-23T21:23:41.984Z,100.00
2022-09-23T21:26:11.119Z,100.00
2022-09-23T21:28:44.621Z,100.00
2022-09-23T21:31:14.872Z,100.00
2022-09-23T21:33:41.421Z,100.00
2022-09-23T21:36:07.922Z,100.00
2022-09-23T21:38:37.951Z,100.00
2022-09-23T21:41:06.693Z,100.00
2022-09-23T21:43:35.600Z,100.00
2022-09-23T21:46:03.629Z,100.00
2022-09-23T21:48:31.519Z,100.00
2022-09-23T21:51:00.084Z,100.00
2022-09-23T21:53:29.474Z,100.00
2022-09-23T21:56:03.850Z,100.00
2022-09-23T21:58:34.657Z,100.00
2022-09-23T22:01:02.248Z,100.00
2022-09-23T22:03:28.731Z,100.00
2022-09-23T22:06:02.974Z,100.00
2022-09-23T22:08:36.852Z,100.00
2022-09-23T22:11:08.814Z,100.00
2022-09-23T22:13:35.253Z,100.00
2022-09-23T22:16:05.204Z,100.00
2022-09-23T22:18:31.986Z,100.00
2022-09-23T22:20:58.880Z,100.00
2022-09-23T22:23:25.516Z,100.00
2022-09-23T22:26:02.784Z,100.00
2022-09-23T22:28:51.098Z,100.00
2022-09-23T22:31:36.335Z,100.00
2022-09-23T22:34:02.789Z,100.00
2022-09-23T22:36:29.200Z,100.00
2022-09-23T22:38:59.060Z,100.00
2022-09-23T22:41:26.276Z,100.00
2022-09-23T22:43:53.829Z,100.00
2022-09-23T22:46:22.201Z,100.00
2022-09-23T22:48:50.442Z,100.00
2022-09-23T22:51:16.875Z,100.00
2022-09-23T22:53:43.409Z,100.00
2022-09-23T22:56:09.813Z,100.00
2022-09-23T22:58:36.525Z,100.00
2022-09-23T23:01:03.148Z,100.00
2022-09-23T23:03:30.498Z,100.00
2022-09-23T23:06:00.517Z,100.00
2022-09-23T23:08:28.180Z,100.00
2022-09-23T23:10:56.139Z,100.00
2022-09-23T23:13:23.617Z,100.00
2022-09-23T23:15:50.744Z,100.00
2022-09-23T23:18:18.070Z,100.00
2022-09-23T23:20:46.038Z,100.00
2022-09-23T23:23:12.605Z,100.00
2022-09-23T23:25:39.505Z,100.00
2022-09-23T23:28:06.814Z,100.00
2022-09-23T23:30:35.085Z,100.00
2022-09-23T23:33:01.742Z,100.00
2022-09-23T23:35:28.261Z,100.00
2022-09-23T23:37:54.692Z,100.00
2022-09-23T23:40:22.742Z,100.00
2022-09-23T23:42:49.469Z,100.00
2022-09-23T23:45:16.659Z,100.00
2022-09-23T23:47:43.906Z,100.00
2022-09-23T23:50:10.720Z,100.00
2022-09-23T23:52:37.199Z,100.00
2022-09-23T23:55:04.038Z,100.00
2022-09-23T23:57:30.558Z,100.00
2022-09-23T23:59:57.038Z,100.00
